createdAt,value
2023-05-19T00:01:01.452Z,21.11
2023-05-19T00:03:34.208Z,21.11
2023-05-19T00:06:06.340Z,21.10
2023-05-19T00:08:39.468Z,21.08
2023-05-19T00:11:12.112Z,21.07
2023-05-19T00:13:48.413Z,21.04
2023-05-19T00:16:20.018Z,21.02
2023-05-19T00:18:51.811Z,21.01
2023-05-19T00:21:23.654Z,21.01
2023-05-19T00:23:54.747Z,21.00
2023-05-19T00:26:27.675Z,20.98
2023-05-19T00:29:03.803Z,20.95
2023-05-19T00:31:35.366Z,20.91
2023-05-19T00:34:06.975Z,20.88
2023-05-19T00:36:38.860Z,20.84
2023-05-19T00:39:10.249Z,20.79
2023-05-19T00:41:41.638Z,20.75
2023-05-19T00:44:12.630Z,20.70
2023-05-19T00:46:43.792Z,20.64
2023-05-19T00:49:15.112Z,20.58
2023-05-19T00:51:46.777Z,20.51
2023-05-19T00:54:19.780Z,20.45
2023-05-19T00:56:51.288Z,20.40
2023-05-19T00:59:22.647Z,20.35
2023-05-19T01:01:54.430Z,20.31
2023-05-19T01:04:25.757Z,20.27
2023-05-19T01:06:57.691Z,20.23
2023-05-19T01:09:30.763Z,20.19
2023-05-19T01:12:02.133Z,20.16
2023-05-19T01:14:33.394Z,20.12
2023-05-19T01:17:09.949Z,20.08
2023-05-19T01:19:57.608Z,20.06
2023-05-19T01:22:43.077Z,20.01
2023-05-19T01:25:47.033Z,19.96
2023-05-19T01:28:33.254Z,19.91
2023-05-19T01:31:07.552Z,19.90
2023-05-19T01:33:40.369Z,19.89
2023-05-19T01:36:14.718Z,19.86
2023-05-19T01:38:47.337Z,19.82
2023-05-19T01:41:19.841Z,19.79
2023-05-19T01:43:52.280Z,19.75
2023-05-19T01:46:24.878Z,19.70
2023-05-19T01:48:57.205Z,19.64
2023-05-19T01:51:29.326Z,19.57
2023-05-19T01:54:00.761Z,19.53
2023-05-19T01:56:46.734Z,19.49
2023-05-19T01:59:35.227Z,19.47
2023-05-19T02:02:16.874Z,19.43
2023-05-19T02:04:56.615Z,19.38
2023-05-19T02:07:38.858Z,19.33
2023-05-19T02:10:19.946Z,19.28
2023-05-19T02:12:54.665Z,19.22
2023-05-19T02:15:31.344Z,19.18
2023-05-19T02:18:05.867Z,19.13
2023-05-19T02:20:37.319Z,19.10
2023-05-19T02:23:08.714Z,19.08
2023-05-19T02:25:39.612Z,19.07
2023-05-19T02:28:10.960Z,19.06
2023-05-19T02:30:42.867Z,19.06
2023-05-19T02:33:14.707Z,19.08
2023-05-19T02:35:47.627Z,19.06
2023-05-19T02:38:19.366Z,19.05
2023-05-19T02:40:52.866Z,19.01
2023-05-19T02:43:24.173Z,18.94
2023-05-19T02:45:55.166Z,18.92
2023-05-19T02:48:26.702Z,18.88
2023-05-19T02:50:58.023Z,18.87
2023-05-19T02:53:29.773Z,18.87
2023-05-19T02:56:00.773Z,18.84
2023-05-19T02:58:32.098Z,18.77
2023-05-19T03:01:03.111Z,18.74
2023-05-19T03:03:34.637Z,18.74
2023-05-19T03:06:08.921Z,18.75
2023-05-19T03:08:42.346Z,18.75
2023-05-19T03:11:13.866Z,18.77
2023-05-19T03:13:45.158Z,18.78
2023-05-19T03:16:16.691Z,18.77
2023-05-19T03:18:48.020Z,18.76
2023-05-19T03:21:19.210Z,18.71
2023-05-19T03:23:50.586Z,18.69
2023-05-19T03:26:23.222Z,18.64
2023-05-19T03:28:54.721Z,18.55
2023-05-19T03:31:26.842Z,18.41
2023-05-19T03:33:58.746Z,18.30
2023-05-19T03:36:32.984Z,18.16
2023-05-19T03:39:04.500Z,18.06
2023-05-19T03:41:35.959Z,18.02
2023-05-19T03:44:07.981Z,17.99
2023-05-19T03:46:39.271Z,17.96
2023-05-19T03:49:33.917Z,17.97
2023-05-19T03:52:13.870Z,17.98
2023-05-19T03:55:00.441Z,18.02
2023-05-19T03:57:31.870Z,18.03
2023-05-19T04:00:04.103Z,18.11
2023-05-19T04:02:43.583Z,18.20
2023-05-19T04:05:15.430Z,18.30
2023-05-19T04:07:47.765Z,18.38
2023-05-19T04:10:18.951Z,18.45
2023-05-19T04:12:51.585Z,18.50
2023-05-19T04:15:22.977Z,18.50
2023-05-19T04:17:54.766Z,18.56
2023-05-19T04:20:26.422Z,18.67
2023-05-19T04:22:57.460Z,18.76
2023-05-19T04:25:29.097Z,18.82
2023-05-19T04:28:01.227Z,18.77
2023-05-19T04:30:33.647Z,18.75
2023-05-19T04:33:05.922Z,18.80
2023-05-19T04:35:38.198Z,18.88
2023-05-19T04:38:12.169Z,18.97
2023-05-19T04:40:44.452Z,19.13
2023-05-19T04:43:15.912Z,19.25
2023-05-19T04:45:50.244Z,19.39
2023-05-19T04:48:23.213Z,19.48
2023-05-19T04:50:54.625Z,19.59
2023-05-19T04:53:27.120Z,19.71
2023-05-19T04:55:59.236Z,19.81
2023-05-19T04:58:30.542Z,19.89
2023-05-19T05:01:01.724Z,19.96
2023-05-19T05:03:34.654Z,20.03
2023-05-19T05:06:06.658Z,20.11
2023-05-19T05:08:40.260Z,20.19
2023-05-19T05:11:13.241Z,20.28
2023-05-19T05:13:45.630Z,20.32
2023-05-19T05:16:19.028Z,20.27
2023-05-19T05:18:52.275Z,20.23
2023-05-19T05:21:24.641Z,20.17
2023-05-19T05:23:57.013Z,20.11
2023-05-19T05:26:34.371Z,20.08
2023-05-19T05:29:05.445Z,20.06
2023-05-19T05:31:36.993Z,20.04
2023-05-19T05:34:08.994Z,20.02
2023-05-19T05:36:41.845Z,20.01
2023-05-19T05:39:14.066Z,20.01
2023-05-19T05:41:45.591Z,20.01
2023-05-19T05:44:17.109Z,20.02
2023-05-19T05:46:50.467Z,20.04
2023-05-19T05:49:23.103Z,20.07
2023-05-19T05:54:35.352Z,20.15
2023-05-19T05:57:08.238Z,20.18
2023-05-19T05:59:40.980Z,20.26
2023-05-19T06:02:12.626Z,20.34
2023-05-19T06:04:44.189Z,20.39
2023-05-19T06:07:15.670Z,20.40
2023-05-19T06:09:49.336Z,20.39
2023-05-19T06:12:20.681Z,20.37
2023-05-19T06:14:52.244Z,20.35
2023-05-19T06:17:43.932Z,20.34
2023-05-19T06:20:16.415Z,20.32
2023-05-19T06:22:47.696Z,20.31
2023-05-19T06:25:20.619Z,20.30
2023-05-19T06:27:52.540Z,20.28
2023-05-19T06:30:24.528Z,20.25
2023-05-19T06:33:22.384Z,20.25
2023-05-19T06:35:53.926Z,20.22
2023-05-19T06:38:25.642Z,20.19
2023-05-19T06:40:56.815Z,20.17
2023-05-19T06:43:28.804Z,20.15
2023-05-19T06:46:02.066Z,20.12
2023-05-19T06:48:34.745Z,20.10
2023-05-19T06:51:07.741Z,20.07
2023-05-19T06:53:39.154Z,20.08
2023-05-19T06:56:12.506Z,20.12
2023-05-19T06:58:44.329Z,20.15
2023-05-19T07:01:16.091Z,20.18
2023-05-19T07:03:50.931Z,20.17
2023-05-19T07:06:22.864Z,20.19
2023-05-19T07:08:55.916Z,20.20
2023-05-19T07:11:28.609Z,20.20
2023-05-19T07:14:00.565Z,20.21
2023-05-19T07:16:32.544Z,20.20
2023-05-19T07:19:04.384Z,20.19
2023-05-19T07:21:37.110Z,20.17
2023-05-19T07:24:09.341Z,20.16
2023-05-19T07:26:40.646Z,20.13
2023-05-19T07:29:12.800Z,20.08
2023-05-19T07:31:44.071Z,20.03
2023-05-19T07:34:15.435Z,19.97
2023-05-19T07:36:46.459Z,19.93
2023-05-19T07:39:18.470Z,19.88
2023-05-19T07:41:52.877Z,19.84
2023-05-19T07:44:24.056Z,19.79
2023-05-19T07:46:55.612Z,19.77
2023-05-19T07:49:26.967Z,19.73
2023-05-19T07:51:58.467Z,19.71
2023-05-19T07:54:29.494Z,19.68
2023-05-19T07:57:01.275Z,19.67
2023-05-19T07:59:32.631Z,19.68
2023-05-19T08:02:05.308Z,19.68
2023-05-19T08:04:37.111Z,19.70
2023-05-19T08:07:08.658Z,19.73
2023-05-19T08:09:39.591Z,19.77
2023-05-19T08:12:11.321Z,19.80
2023-05-19T08:14:42.303Z,19.75
2023-05-19T08:17:13.201Z,19.66
2023-05-19T08:19:44.790Z,19.52
2023-05-19T08:22:15.974Z,19.43
2023-05-19T08:24:49.605Z,19.43
2023-05-19T08:27:21.383Z,19.41
2023-05-19T08:29:52.739Z,19.42
2023-05-19T08:32:23.903Z,19.45
2023-05-19T08:34:55.932Z,19.46
2023-05-19T08:37:27.237Z,19.42
2023-05-19T08:39:58.620Z,19.33
2023-05-19T08:42:29.776Z,19.24
2023-05-19T08:45:01.392Z,19.24
2023-05-19T08:47:33.452Z,19.25
2023-05-19T08:50:10.093Z,19.27
2023-05-19T08:52:52.508Z,19.32
2023-05-19T08:55:35.083Z,19.37
2023-05-19T08:58:06.759Z,19.43
2023-05-19T09:00:38.265Z,19.47
2023-05-19T09:03:22.785Z,19.50
2023-05-19T09:05:54.932Z,19.53
2023-05-19T09:08:26.860Z,19.55
2023-05-19T09:10:58.614Z,19.60
2023-05-19T09:13:29.923Z,19.62
2023-05-19T09:16:01.047Z,19.61
2023-05-19T09:18:33.277Z,19.60
2023-05-19T09:21:04.781Z,19.60
2023-05-19T09:23:36.317Z,19.60
2023-05-19T09:26:08.413Z,19.59
2023-05-19T09:28:41.686Z,19.60
2023-05-19T09:31:13.229Z,19.61
2023-05-19T09:33:46.308Z,19.61
2023-05-19T09:36:17.791Z,19.60
2023-05-19T09:38:49.418Z,19.57
2023-05-19T09:41:22.223Z,19.58
2023-05-19T09:43:57.146Z,19.58
2023-05-19T09:46:30.309Z,19.58
2023-05-19T09:49:01.645Z,19.58
2023-05-19T09:51:33.208Z,19.58
2023-05-19T09:54:04.576Z,19.59
2023-05-19T09:56:37.023Z,19.57
2023-05-19T09:59:08.256Z,19.53
2023-05-19T10:01:41.420Z,19.53
2023-05-19T10:04:13.743Z,19.53
2023-05-19T10:06:46.446Z,19.55
2023-05-19T10:09:18.219Z,19.58
2023-05-19T10:11:49.386Z,19.60
2023-05-19T10:14:21.478Z,19.65
2023-05-19T10:16:54.170Z,19.70
2023-05-19T10:19:27.727Z,19.76
2023-05-19T10:21:58.912Z,19.80
2023-05-19T10:24:30.484Z,19.82
2023-05-19T10:27:06.505Z,19.84
2023-05-19T10:29:42.450Z,19.87
2023-05-19T10:32:16.902Z,19.87
2023-05-19T10:35:27.142Z,19.84
2023-05-19T10:38:07.496Z,19.85
2023-05-19T10:40:42.543Z,19.92
2023-05-19T10:43:27.506Z,20.01
2023-05-19T10:46:01.187Z,20.07
2023-05-19T10:48:37.405Z,20.12
2023-05-19T10:51:12.349Z,20.19
2023-05-19T10:53:50.615Z,20.23
2023-05-19T10:56:36.300Z,20.27
2023-05-19T10:59:07.793Z,20.29
2023-05-19T11:01:41.758Z,20.31
2023-05-19T11:04:16.065Z,20.31
2023-05-19T11:06:53.756Z,20.30
2023-05-19T11:09:37.801Z,20.31
2023-05-19T11:12:13.052Z,20.32
2023-05-19T11:14:45.978Z,20.33
2023-05-19T11:17:17.912Z,20.35
2023-05-19T11:19:57.465Z,20.38
2023-05-19T11:22:29.357Z,20.41
2023-05-19T11:25:00.837Z,20.42
2023-05-19T11:27:33.099Z,20.43
2023-05-19T11:30:14.624Z,20.44
2023-05-19T11:32:48.999Z,20.44
2023-05-19T11:35:21.583Z,20.46
2023-05-19T11:37:55.287Z,20.48
2023-05-19T11:40:27.808Z,20.51
2023-05-19T11:42:59.244Z,20.52
2023-05-19T11:45:32.683Z,20.53
2023-05-19T11:48:05.527Z,20.51
2023-05-19T11:50:38.460Z,20.49
2023-05-19T11:53:12.678Z,20.46
2023-05-19T11:55:48.767Z,20.44
2023-05-19T11:58:27.383Z,20.37
2023-05-19T12:00:58.665Z,20.33
2023-05-19T12:03:30.011Z,20.32
2023-05-19T12:06:05.857Z,20.35
2023-05-19T12:08:38.669Z,20.37
2023-05-19T12:11:10.168Z,20.41
2023-05-19T12:13:42.007Z,20.44
2023-05-19T12:16:13.397Z,20.46
2023-05-19T12:18:45.348Z,20.51
2023-05-19T12:21:17.578Z,20.54
2023-05-19T12:23:48.635Z,20.61
2023-05-19T12:26:22.424Z,20.69
2023-05-19T12:28:54.401Z,20.78
2023-05-19T12:31:25.663Z,20.87
2023-05-19T12:33:58.860Z,20.93
2023-05-19T12:36:32.346Z,20.99
2023-05-19T12:39:06.334Z,21.05
2023-05-19T12:41:37.721Z,21.10
2023-05-19T12:44:18.386Z,21.14
2023-05-19T12:46:53.145Z,21.19
2023-05-19T12:49:24.786Z,21.24
2023-05-19T12:51:56.431Z,21.28
2023-05-19T12:54:27.906Z,21.29
2023-05-19T12:57:00.632Z,21.30
2023-05-19T12:59:38.887Z,21.35
2023-05-19T13:02:10.905Z,21.42
2023-05-19T13:04:42.535Z,21.49
2023-05-19T13:07:14.293Z,21.54
2023-05-19T13:09:45.818Z,21.54
2023-05-19T13:12:17.330Z,21.53
2023-05-19T13:14:48.516Z,21.53
2023-05-19T13:17:20.736Z,21.55
2023-05-19T13:19:52.751Z,21.56
2023-05-19T13:22:24.225Z,21.55
2023-05-19T13:24:59.081Z,21.50
2023-05-19T13:27:30.567Z,21.39
2023-05-19T13:30:01.957Z,21.33
2023-05-19T13:32:33.286Z,21.31
2023-05-19T13:35:04.884Z,21.35
2023-05-19T13:37:36.509Z,21.39
2023-05-19T13:40:09.620Z,21.48
2023-05-19T13:42:40.625Z,21.59
2023-05-19T13:45:13.584Z,21.67
2023-05-19T13:47:45.091Z,21.74
2023-05-19T13:50:16.421Z,21.78
2023-05-19T13:52:47.691Z,21.87
2023-05-19T13:55:19.277Z,21.96
2023-05-19T13:57:50.929Z,22.05
2023-05-19T14:00:23.128Z,22.16
2023-05-19T14:02:54.458Z,22.25
2023-05-19T14:05:27.752Z,22.31
2023-05-19T14:08:00.595Z,22.33
2023-05-19T14:10:32.068Z,22.34
2023-05-19T14:13:29.918Z,22.33
2023-05-19T14:15:55.683Z,22.31
2023-05-19T14:18:27.183Z,22.33
2023-05-19T14:20:58.288Z,22.35
2023-05-19T14:23:30.455Z,22.38
2023-05-19T14:26:01.478Z,22.44
2023-05-19T14:28:32.596Z,22.49
2023-05-19T14:31:03.955Z,22.53
2023-05-19T14:33:35.695Z,22.57
2023-05-19T14:36:09.161Z,22.61
2023-05-19T14:38:40.423Z,22.63
2023-05-19T14:41:11.614Z,22.62
2023-05-19T14:43:43.259Z,22.61
2023-05-19T14:46:14.169Z,22.66
2023-05-19T14:48:45.409Z,22.69
2023-05-19T14:51:16.775Z,22.72
2023-05-19T14:53:49.055Z,22.76
2023-05-19T14:56:20.653Z,22.78
2023-05-19T14:58:51.814Z,22.75
2023-05-19T15:01:22.747Z,22.72
2023-05-19T15:03:54.075Z,22.69
2023-05-19T15:06:25.456Z,22.67
2023-05-19T15:08:56.891Z,22.67
2023-05-19T15:11:28.469Z,22.65
2023-05-19T15:13:59.695Z,22.64
2023-05-19T15:16:30.914Z,22.61
2023-05-19T15:19:02.248Z,22.55
2023-05-19T15:21:33.706Z,22.53
2023-05-19T15:24:04.947Z,22.50
2023-05-19T15:26:36.047Z,22.49
2023-05-19T15:29:07.555Z,22.48
2023-05-19T15:31:38.729Z,22.45
2023-05-19T15:34:10.041Z,22.41
2023-05-19T15:36:41.325Z,22.38
2023-05-19T15:39:12.553Z,22.34
2023-05-19T15:41:43.757Z,22.32
2023-05-19T15:44:15.078Z,22.31
2023-05-19T15:46:46.198Z,22.31
2023-05-19T15:49:18.148Z,22.31
2023-05-19T15:51:49.670Z,22.29
2023-05-19T15:54:20.715Z,22.31
2023-05-19T15:56:51.735Z,22.34
2023-05-19T15:59:22.855Z,22.40
2023-05-19T16:01:54.031Z,22.46
2023-05-19T16:04:25.206Z,22.48
2023-05-19T16:06:56.248Z,22.51
2023-05-19T16:09:27.373Z,22.54
2023-05-19T16:11:58.389Z,22.54
2023-05-19T16:14:32.117Z,22.53
2023-05-19T16:17:03.354Z,22.53
2023-05-19T16:19:34.533Z,22.52
2023-05-19T16:22:05.648Z,22.49
2023-05-19T16:24:36.725Z,22.42
2023-05-19T16:27:08.489Z,22.33
2023-05-19T16:29:39.448Z,22.22
2023-05-19T16:32:10.764Z,22.12
2023-05-19T16:34:41.938Z,22.02
2023-05-19T16:37:13.601Z,21.94
2023-05-19T16:39:45.078Z,21.87
2023-05-19T16:42:16.415Z,21.78
2023-05-19T16:44:47.362Z,21.71
2023-05-19T16:47:19.187Z,21.66
2023-05-19T16:49:50.195Z,21.59
2023-05-19T16:52:21.443Z,21.55
2023-05-19T16:54:52.852Z,21.48
2023-05-19T16:57:24.367Z,21.44
2023-05-19T16:59:55.910Z,21.38
2023-05-19T17:02:26.830Z,21.31
2023-05-19T17:04:58.180Z,21.25
2023-05-19T17:07:29.953Z,21.20
2023-05-19T17:10:00.961Z,21.15
2023-05-19T17:12:32.552Z,21.10
2023-05-19T17:15:03.984Z,21.04
2023-05-19T17:17:35.376Z,20.99
2023-05-19T17:20:08.001Z,20.96
2023-05-19T17:22:39.268Z,20.94
2023-05-19T17:25:12.363Z,20.90
2023-05-19T17:27:43.898Z,20.87
2023-05-19T17:30:16.621Z,20.86
2023-05-19T17:32:48.149Z,20.86
2023-05-19T17:35:19.784Z,20.86
2023-05-19T17:37:51.160Z,20.86
2023-05-19T17:40:22.516Z,20.85
2023-05-19T17:42:53.966Z,20.82
2023-05-19T17:45:25.379Z,20.78
2023-05-19T17:47:56.672Z,20.74
2023-05-19T17:50:27.832Z,20.68
2023-05-19T17:53:01.737Z,20.62
2023-05-19T17:55:34.364Z,20.56
2023-05-19T17:58:06.993Z,20.50
2023-05-19T18:00:39.391Z,20.45
2023-05-19T18:03:12.179Z,20.41
2023-05-19T18:05:44.850Z,20.37
2023-05-19T18:08:18.115Z,20.34
2023-05-19T18:10:51.708Z,20.32
2023-05-19T18:13:23.768Z,20.26
2023-05-19T18:15:55.095Z,20.16
2023-05-19T18:18:26.496Z,20.07
2023-05-19T18:20:58.191Z,20.03
2023-05-19T18:23:29.413Z,20.03
2023-05-19T18:26:00.553Z,20.03
2023-05-19T18:28:31.809Z,19.98
2023-05-19T18:31:03.801Z,19.91
2023-05-19T18:33:35.596Z,19.90
2023-05-19T18:36:08.328Z,19.89
2023-05-19T18:38:39.410Z,19.87
2023-05-19T18:41:10.873Z,19.68
2023-05-19T18:43:42.323Z,19.40
2023-05-19T18:46:13.736Z,19.41
2023-05-19T18:48:45.149Z,19.52
2023-05-19T18:51:18.658Z,19.61
2023-05-19T18:53:50.905Z,19.70
2023-05-19T18:56:28.689Z,19.75
2023-05-19T18:59:00.015Z,19.79
2023-05-19T19:01:31.462Z,19.82
2023-05-19T19:04:03.441Z,19.92
2023-05-19T19:06:34.671Z,19.99
2023-05-19T19:09:07.022Z,20.07
2023-05-19T19:11:38.409Z,20.09
2023-05-19T19:14:11.854Z,20.09
2023-05-19T19:16:44.784Z,20.09
2023-05-19T19:19:19.553Z,20.06
2023-05-19T19:21:50.792Z,20.07
2023-05-19T19:24:23.887Z,20.09
2023-05-19T19:26:57.771Z,20.10
2023-05-19T19:29:28.622Z,20.10
2023-05-19T19:32:00.749Z,20.11
2023-05-19T19:34:31.959Z,20.11
2023-05-19T19:37:03.489Z,20.08
2023-05-19T19:39:34.779Z,20.06
2023-05-19T19:42:06.883Z,20.03
2023-05-19T19:44:38.070Z,20.00
2023-05-19T19:47:09.255Z,19.99
2023-05-19T19:49:41.461Z,19.97
2023-05-19T19:52:13.530Z,19.95
2023-05-19T19:54:44.833Z,19.92
2023-05-19T19:57:17.772Z,19.89
2023-05-19T19:59:55.143Z,19.85
2023-05-19T20:02:28.945Z,19.79
2023-05-19T20:05:04.769Z,19.73
2023-05-19T20:07:37.382Z,19.68
2023-05-19T20:10:10.235Z,19.62
2023-05-19T20:12:42.064Z,19.56
2023-05-19T20:15:15.397Z,19.49
2023-05-19T20:17:48.341Z,19.44
2023-05-19T20:20:20.034Z,19.38
2023-05-19T20:22:51.095Z,19.35
2023-05-19T20:25:22.967Z,19.33
2023-05-19T20:27:54.450Z,19.32
2023-05-19T20:30:27.843Z,19.33
2023-05-19T20:32:58.893Z,19.32
2023-05-19T20:35:30.675Z,19.34
2023-05-19T20:38:01.816Z,19.33
2023-05-19T20:40:33.199Z,19.32
2023-05-19T20:43:04.746Z,19.32
2023-05-19T20:45:36.391Z,19.31
2023-05-19T20:48:09.192Z,19.31
2023-05-19T20:50:40.650Z,19.32
2023-05-19T20:53:11.705Z,19.30
2023-05-19T20:55:44.903Z,19.30
2023-05-19T20:58:16.616Z,19.30
2023-05-19T21:00:48.867Z,19.32
2023-05-19T21:03:21.487Z,19.34
2023-05-19T21:05:53.794Z,19.34
2023-05-19T21:08:25.620Z,19.34
2023-05-19T21:10:56.603Z,19.35
2023-05-19T21:13:27.801Z,19.36
2023-05-19T21:16:00.327Z,19.36
2023-05-19T21:18:31.343Z,19.38
2023-05-19T21:21:05.892Z,19.42
2023-05-19T21:23:37.156Z,19.45
2023-05-19T21:26:08.425Z,19.47
2023-05-19T21:28:39.509Z,19.48
2023-05-19T21:31:10.383Z,19.48
2023-05-19T21:33:41.272Z,19.45
2023-05-19T21:36:12.672Z,19.44
2023-05-19T21:38:43.672Z,19.38
2023-05-19T21:41:15.028Z,19.34
2023-05-19T21:43:47.216Z,19.31
2023-05-19T21:46:18.378Z,19.29
2023-05-19T21:48:49.617Z,19.26
2023-05-19T21:51:21.088Z,19.22
2023-05-19T21:53:52.448Z,19.17
2023-05-19T21:56:23.985Z,19.10
2023-05-19T21:58:55.020Z,19.04
2023-05-19T22:01:26.635Z,18.99
2023-05-19T22:03:58.062Z,18.96
2023-05-19T22:06:29.777Z,18.93
2023-05-19T22:09:02.663Z,18.88
2023-05-19T22:11:34.321Z,18.86
2023-05-19T22:14:05.661Z,18.88
2023-05-19T22:16:37.188Z,18.88
2023-05-19T22:19:08.421Z,18.84
2023-05-19T22:21:39.923Z,18.82
2023-05-19T22:24:11.366Z,18.83
2023-05-19T22:26:43.396Z,18.81
2023-05-19T22:29:16.599Z,18.78
2023-05-19T22:31:47.840Z,18.75
2023-05-19T22:34:19.681Z,18.69
2023-05-19T22:36:51.381Z,18.67
2023-05-19T22:39:22.733Z,18.69
2023-05-19T22:41:54.030Z,18.73
2023-05-19T22:44:25.268Z,18.71
2023-05-19T22:46:56.557Z,18.68
2023-05-19T22:49:29.980Z,18.67
2023-05-19T22:52:01.013Z,18.62
2023-05-19T22:54:31.951Z,18.57
2023-05-19T22:57:03.515Z,18.55
2023-05-19T22:59:35.562Z,18.55
2023-05-19T23:02:07.520Z,18.57
2023-05-19T23:04:39.169Z,18.60
2023-05-19T23:07:10.794Z,18.60
2023-05-19T23:09:42.049Z,18.61
2023-05-19T23:12:13.568Z,18.63
2023-05-19T23:14:45.166Z,18.63
2023-05-19T23:17:16.313Z,18.64
2023-05-19T23:19:47.594Z,18.69
2023-05-19T23:22:18.960Z,18.77
2023-05-19T23:24:50.561Z,18.84
2023-05-19T23:27:22.054Z,18.88
2023-05-19T23:29:54.264Z,18.87
2023-05-19T23:32:25.649Z,18.80
2023-05-19T23:34:57.474Z,18.74
2023-05-19T23:37:28.740Z,18.73
2023-05-19T23:40:00.500Z,18.73
2023-05-19T23:42:32.055Z,18.74
2023-05-19T23:45:03.616Z,18.75
2023-05-19T23:47:34.968Z,18.78
2023-05-19T23:50:06.571Z,18.79
2023-05-19T23:52:37.689Z,18.82
2023-05-19T23:55:12.822Z,18.80
2023-05-19T23:57:44.704Z,18.71
